sensor_id;sensor_type;location;lat;lon;timestamp;P1;durP1;ratioP1;P2;durP2;ratioP2
5026;SDS011;2532;52.480;13.354;2023-03-23T05:00:56;9.67;;;5.10;;
5026;SDS011;2532;52.480;13.354;2023-03-23T05:03:26;3.80;;;3.33;;
5026;SDS011;2532;52.480;13.354;2023-03-23T05:05:56;5.07;;;4.50;;
5026;SDS011;2532;52.480;13.354;2023-03-23T05:08:28;6.63;;;4.13;;
5026;SDS011;2532;52.480;13.354;2023-03-23T05:10:59;7.43;;;4.57;;
5026;SDS011;2532;52.480;13.354;2023-03-23T05:13:28;7.27;;;4.10;;
5026;SDS011;2532;52.480;13.354;2023-03-23T05:22:11;5.83;;;4.00;;
5026;SDS011;2532;52.480;13.354;2023-03-23T05:24:54;6.10;;;3.50;;
5026;SDS011;2532;52.480;13.354;2023-03-23T05:27:24;4.70;;;3.70;;
5026;SDS011;2532;52.480;13.354;2023-03-23T05:30:01;4.83;;;3.43;;
5026;SDS011;2532;52.480;13.354;2023-03-23T05:32:39;5.67;;;4.43;;
5026;SDS011;2532;52.480;13.354;2023-03-23T05:35:16;4.23;;;3.60;;
5026;SDS011;2532;52.480;13.354;2023-03-23T05:37:45;7.20;;;3.90;;
5026;SDS011;2532;52.480;13.354;2023-03-23T05:40:14;8.23;;;3.30;;
5026;SDS011;2532;52.480;13.354;2023-03-23T05:42:45;5.57;;;3.23;;
5026;SDS011;2532;52.480;13.354;2023-03-23T05:45:19;3.97;;;2.83;;
5026;SDS011;2532;52.480;13.354;2023-03-23T05:47:52;5.23;;;3.30;;
5026;SDS011;2532;52.480;13.354;2023-03-23T05:50:25;4.30;;;3.20;;
5026;SDS011;2532;52.480;13.354;2023-03-23T05:52:56;7.23;;;3.37;;
5026;SDS011;2532;52.480;13.354;2023-03-23T05:55:25;10.00;;;3.97;;
5026;SDS011;2532;52.480;13.354;2023-03-23T05:57:54;10.17;;;3.77;;
5026;SDS011;2532;52.480;13.354;2023-03-23T06:00:26;4.37;;;3.00;;
5026;SDS011;2532;52.480;13.354;2023-03-23T06:02:59;6.53;;;3.30;;
5026;SDS011;2532;52.480;13.354;2023-03-23T06:08:58;5.83;;;3.60;;
5026;SDS011;2532;52.480;13.354;2023-03-23T06:11:29;6.47;;;3.83;;
5026;SDS011;2532;52.480;13.354;2023-03-23T06:14:09;5.03;;;2.93;;
5026;SDS011;2532;52.480;13.354;2023-03-23T06:16:37;4.60;;;2.80;;
5026;SDS011;2532;52.480;13.354;2023-03-23T06:19:05;4.00;;;2.83;;
5026;SDS011;2532;52.480;13.354;2023-03-23T06:21:32;3.53;;;3.10;;
5026;SDS011;2532;52.480;13.354;2023-03-23T06:24:00;4.60;;;2.73;;
5026;SDS011;2532;52.480;13.354;2023-03-23T06:26:29;3.57;;;2.87;;
5026;SDS011;2532;52.480;13.354;2023-03-23T06:28:58;4.60;;;2.87;;
5026;SDS011;2532;52.480;13.354;2023-03-23T06:31:26;5.60;;;3.53;;
5026;SDS011;2532;52.480;13.354;2023-03-23T06:33:53;3.93;;;2.90;;
5026;SDS011;2532;52.480;13.354;2023-03-23T06:36:21;3.70;;;3.13;;
5026;SDS011;2532;52.480;13.354;2023-03-23T06:38:48;5.23;;;3.03;;
5026;SDS011;2532;52.480;13.354;2023-03-23T06:41:17;6.47;;;3.33;;
5026;SDS011;2532;52.480;13.354;2023-03-23T06:43:44;5.40;;;3.17;;
5026;SDS011;2532;52.480;13.354;2023-03-23T06:46:11;4.30;;;3.03;;
5026;SDS011;2532;52.480;13.354;2023-03-23T06:48:38;4.30;;;2.90;;
5026;SDS011;2532;52.480;13.354;2023-03-23T06:51:05;7.30;;;2.80;;
5026;SDS011;2532;52.480;13.354;2023-03-23T06:53:33;5.83;;;2.97;;
5026;SDS011;2532;52.480;13.354;2023-03-23T06:56:00;6.07;;;3.77;;
5026;SDS011;2532;52.480;13.354;2023-03-23T06:58:31;4.70;;;2.77;;
5026;SDS011;2532;52.480;13.354;2023-03-23T07:00:58;4.37;;;3.03;;
5026;SDS011;2532;52.480;13.354;2023-03-23T07:03:26;6.70;;;3.27;;
5026;SDS011;2532;52.480;13.354;2023-03-23T07:05:53;4.90;;;3.23;;
5026;SDS011;2532;52.480;13.354;2023-03-23T07:08:20;4.67;;;2.93;;
5026;SDS011;2532;52.480;13.354;2023-03-23T07:10:47;6.30;;;3.80;;
5026;SDS011;2532;52.480;13.354;2023-03-23T07:13:17;7.10;;;3.40;;
5026;SDS011;2532;52.480;13.354;2023-03-23T07:15:46;6.93;;;3.90;;
5026;SDS011;2532;52.480;13.354;2023-03-23T07:18:15;6.20;;;3.70;;
5026;SDS011;2532;52.480;13.354;2023-03-23T07:20:42;8.60;;;3.13;;
5026;SDS011;2532;52.480;13.354;2023-03-23T07:23:12;5.43;;;4.10;;
5026;SDS011;2532;52.480;13.354;2023-03-23T07:25:40;5.33;;;3.47;;
5026;SDS011;2532;52.480;13.354;2023-03-23T07:28:07;6.10;;;4.63;;
5026;SDS011;2532;52.480;13.354;2023-03-23T07:30:34;9.03;;;5.07;;
5026;SDS011;2532;52.480;13.354;2023-03-23T07:33:05;7.17;;;3.90;;
5026;SDS011;2532;52.480;13.354;2023-03-23T07:35:33;4.60;;;3.70;;
5026;SDS011;2532;52.480;13.354;2023-03-23T07:38:00;10.40;;;3.67;;
5026;SDS011;2532;52.480;13.354;2023-03-23T07:40:29;6.80;;;3.80;;
5026;SDS011;2532;52.480;13.354;2023-03-23T07:42:58;5.37;;;4.00;;
5026;SDS011;2532;52.480;13.354;2023-03-23T07:45:26;5.60;;;3.37;;
5026;SDS011;2532;52.480;13.354;2023-03-23T07:47:54;6.80;;;3.97;;
5026;SDS011;2532;52.480;13.354;2023-03-23T07:50:23;9.47;;;3.77;;
5026;SDS011;2532;52.480;13.354;2023-03-23T07:52:51;7.20;;;3.20;;
5026;SDS011;2532;52.480;13.354;2023-03-23T07:55:20;7.43;;;4.27;;
5026;SDS011;2532;52.480;13.354;2023-03-23T07:57:50;5.63;;;3.83;;
5026;SDS011;2532;52.480;13.354;2023-03-23T08:00:18;4.67;;;3.97;;
5026;SDS011;2532;52.480;13.354;2023-03-23T08:02:49;9.60;;;3.53;;
5026;SDS011;2532;52.480;13.354;2023-03-23T08:05:17;6.33;;;3.40;;
5026;SDS011;2532;52.480;13.354;2023-03-23T08:07:46;6.23;;;3.70;;
5026;SDS011;2532;52.480;13.354;2023-03-23T08:10:15;4.03;;;3.60;;
5026;SDS011;2532;52.480;13.354;2023-03-23T08:12:43;4.40;;;3.93;;
5026;SDS011;2532;52.480;13.354;2023-03-23T08:15:11;6.10;;;4.00;;
5026;SDS011;2532;52.480;13.354;2023-03-23T08:17:40;6.10;;;3.40;;
5026;SDS011;2532;52.480;13.354;2023-03-23T08:20:08;7.37;;;4.17;;
5026;SDS011;2532;52.480;13.354;2023-03-23T08:22:38;3.20;;;2.90;;
5026;SDS011;2532;52.480;13.354;2023-03-23T08:25:09;4.50;;;3.30;;
5026;SDS011;2532;52.480;13.354;2023-03-23T08:27:37;5.53;;;4.10;;
5026;SDS011;2532;52.480;13.354;2023-03-23T08:30:08;6.30;;;3.50;;
5026;SDS011;2532;52.480;13.354;2023-03-23T08:32:37;4.60;;;3.80;;
5026;SDS011;2532;52.480;13.354;2023-03-23T08:35:05;4.23;;;3.20;;
5026;SDS011;2532;52.480;13.354;2023-03-23T08:37:33;4.33;;;3.50;;
5026;SDS011;2532;52.480;13.354;2023-03-23T08:40:01;7.90;;;3.70;;
5026;SDS011;2532;52.480;13.354;2023-03-23T08:42:35;5.47;;;3.53;;
5026;SDS011;2532;52.480;13.354;2023-03-23T08:45:03;4.90;;;3.90;;
5026;SDS011;2532;52.480;13.354;2023-03-23T08:47:32;5.70;;;3.70;;
5026;SDS011;2532;52.480;13.354;2023-03-23T08:49:58;4.80;;;3.53;;
5026;SDS011;2532;52.480;13.354;2023-03-23T08:52:26;4.73;;;3.63;;
5026;SDS011;2532;52.480;13.354;2023-03-23T08:54:54;3.73;;;3.27;;
5026;SDS011;2532;52.480;13.354;2023-03-23T08:57:22;3.67;;;3.33;;
5026;SDS011;2532;52.480;13.354;2023-03-23T08:59:50;4.93;;;3.23;;
5026;SDS011;2532;52.480;13.354;2023-03-23T09:02:19;4.10;;;3.33;;
5026;SDS011;2532;52.480;13.354;2023-03-23T09:04:48;4.40;;;3.03;;
5026;SDS011;2532;52.480;13.354;2023-03-23T09:07:15;3.50;;;3.20;;
5026;SDS011;2532;52.480;13.354;2023-03-23T09:09:42;5.27;;;3.33;;
5026;SDS011;2532;52.480;13.354;2023-03-23T09:12:09;4.90;;;3.50;;
5026;SDS011;2532;52.480;13.354;2023-03-23T09:14:37;3.73;;;3.40;;
5026;SDS011;2532;52.480;13.354;2023-03-23T09:17:06;4.23;;;3.17;;
5026;SDS011;2532;52.480;13.354;2023-03-23T09:19:33;3.93;;;3.20;;
5026;SDS011;2532;52.480;13.354;2023-03-23T09:22:01;8.53;;;3.90;;
5026;SDS011;2532;52.480;13.354;2023-03-23T09:24:29;6.00;;;4.13;;
5026;SDS011;2532;52.480;13.354;2023-03-23T09:26:56;5.43;;;3.50;;
5026;SDS011;2532;52.480;13.354;2023-03-23T09:29:24;5.10;;;3.80;;
5026;SDS011;2532;52.480;13.354;2023-03-23T09:31:51;4.33;;;3.17;;
5026;SDS011;2532;52.480;13.354;2023-03-23T09:34:20;4.30;;;3.23;;
5026;SDS011;2532;52.480;13.354;2023-03-23T09:36:47;4.43;;;3.00;;
5026;SDS011;2532;52.480;13.354;2023-03-23T09:39:14;2.90;;;2.70;;
5026;SDS011;2532;52.480;13.354;2023-03-23T09:41:49;5.27;;;2.97;;
5026;SDS011;2532;52.480;13.354;2023-03-23T09:44:28;3.70;;;2.90;;
5026;SDS011;2532;52.480;13.354;2023-03-23T09:47:05;5.13;;;3.10;;
5026;SDS011;2532;52.480;13.354;2023-03-23T09:49:44;6.63;;;3.10;;
5026;SDS011;2532;52.480;13.354;2023-03-23T09:52:17;4.30;;;3.27;;
5026;SDS011;2532;52.480;13.354;2023-03-23T09:54:46;3.93;;;3.00;;
5026;SDS011;2532;52.480;13.354;2023-03-23T09:57:15;3.17;;;2.90;;
5026;SDS011;2532;52.480;13.354;2023-03-23T09:59:59;3.50;;;2.57;;
5026;SDS011;2532;52.480;13.354;2023-03-23T10:02:35;4.10;;;3.20;;
5026;SDS011;2532;52.480;13.354;2023-03-23T10:05:22;5.63;;;2.77;;
5026;SDS011;2532;52.480;13.354;2023-03-23T10:07:55;4.00;;;2.87;;
5026;SDS011;2532;52.480;13.354;2023-03-23T10:10:22;5.53;;;3.30;;
5026;SDS011;2532;52.480;13.354;2023-03-23T10:12:59;3.63;;;2.90;;
5026;SDS011;2532;52.480;13.354;2023-03-23T10:15:30;2.80;;;2.50;;
5026;SDS011;2532;52.480;13.354;2023-03-23T10:18:02;5.40;;;3.00;;
5026;SDS011;2532;52.480;13.354;2023-03-23T10:20:40;4.13;;;2.83;;
5026;SDS011;2532;52.480;13.354;2023-03-23T10:23:13;3.67;;;3.37;;
5026;SDS011;2532;52.480;13.354;2023-03-23T10:25:50;5.07;;;2.80;;
5026;SDS011;2532;52.480;13.354;2023-03-23T10:28:21;6.53;;;2.63;;
5026;SDS011;2532;52.480;13.354;2023-03-23T10:31:00;4.03;;;2.67;;
5026;SDS011;2532;52.480;13.354;2023-03-23T10:33:30;3.90;;;2.40;;
5026;SDS011;2532;52.480;13.354;2023-03-23T10:36:05;4.03;;;2.73;;
5026;SDS011;2532;52.480;13.354;2023-03-23T10:38:36;3.03;;;2.70;;
5026;SDS011;2532;52.480;13.354;2023-03-23T10:41:06;7.73;;;3.20;;
5026;SDS011;2532;52.480;13.354;2023-03-23T10:43:37;2.67;;;2.30;;
5026;SDS011;2532;52.480;13.354;2023-03-23T10:46:11;4.83;;;2.70;;
5026;SDS011;2532;52.480;13.354;2023-03-23T10:48:47;4.60;;;2.60;;
5026;SDS011;2532;52.480;13.354;2023-03-23T10:51:19;4.57;;;2.70;;
5026;SDS011;2532;52.480;13.354;2023-03-23T10:53:50;3.03;;;2.50;;
5026;SDS011;2532;52.480;13.354;2023-03-23T10:56:23;2.57;;;2.37;;
5026;SDS011;2532;52.480;13.354;2023-03-23T10:58:52;3.40;;;2.70;;
5026;SDS011;2532;52.480;13.354;2023-03-23T11:01:20;3.50;;;2.93;;
5026;SDS011;2532;52.480;13.354;2023-03-23T11:03:56;5.43;;;2.63;;
5026;SDS011;2532;52.480;13.354;2023-03-23T11:06:27;7.03;;;2.60;;
5026;SDS011;2532;52.480;13.354;2023-03-23T11:08:58;6.50;;;2.43;;
5026;SDS011;2532;52.480;13.354;2023-03-23T11:11:29;3.23;;;2.77;;
5026;SDS011;2532;52.480;13.354;2023-03-23T11:13:58;3.67;;;3.03;;
5026;SDS011;2532;52.480;13.354;2023-03-23T11:16:27;7.83;;;5.50;;
5026;SDS011;2532;52.480;13.354;2023-03-23T11:18:57;6.07;;;3.80;;
5026;SDS011;2532;52.480;13.354;2023-03-23T11:21:27;5.17;;;3.43;;
5026;SDS011;2532;52.480;13.354;2023-03-23T11:23:55;3.73;;;3.10;;
5026;SDS011;2532;52.480;13.354;2023-03-23T11:26:24;4.73;;;3.20;;
5026;SDS011;2532;52.480;13.354;2023-03-23T11:28:55;5.53;;;3.90;;
5026;SDS011;2532;52.480;13.354;2023-03-23T11:31:27;4.70;;;3.23;;
5026;SDS011;2532;52.480;13.354;2023-03-23T11:34:00;6.50;;;3.83;;
5026;SDS011;2532;52.480;13.354;2023-03-23T11:36:33;6.30;;;4.37;;
5026;SDS011;2532;52.480;13.354;2023-03-23T11:39:02;7.07;;;5.00;;
5026;SDS011;2532;52.480;13.354;2023-03-23T11:41:32;6.40;;;4.37;;
5026;SDS011;2532;52.480;13.354;2023-03-23T11:44:03;12.17;;;4.37;;
5026;SDS011;2532;52.480;13.354;2023-03-23T11:46:38;6.70;;;4.13;;
5026;SDS011;2532;52.480;13.354;2023-03-23T11:49:14;5.33;;;4.37;;
5026;SDS011;2532;52.480;13.354;2023-03-23T11:51:48;5.67;;;4.20;;
5026;SDS011;2532;52.480;13.354;2023-03-23T11:54:26;5.30;;;4.30;;
5026;SDS011;2532;52.480;13.354;2023-03-23T11:56:58;3.80;;;3.40;;
5026;SDS011;2532;52.480;13.354;2023-03-23T11:59:27;10.07;;;4.10;;
5026;SDS011;2532;52.480;13.354;2023-03-23T12:01:56;5.00;;;4.20;;
5026;SDS011;2532;52.480;13.354;2023-03-23T12:07:35;5.50;;;3.63;;
5026;SDS011;2532;52.480;13.354;2023-03-23T12:10:21;5.53;;;4.07;;
5026;SDS011;2532;52.480;13.354;2023-03-23T12:12:57;6.07;;;3.50;;
5026;SDS011;2532;52.480;13.354;2023-03-23T12:15:34;6.10;;;4.80;;
5026;SDS011;2532;52.480;13.354;2023-03-23T12:18:06;5.27;;;3.77;;
5026;SDS011;2532;52.480;13.354;2023-03-23T12:20:45;5.10;;;3.50;;
5026;SDS011;2532;52.480;13.354;2023-03-23T12:23:24;4.63;;;3.30;;
5026;SDS011;2532;52.480;13.354;2023-03-23T12:26:05;7.03;;;3.63;;
5026;SDS011;2532;52.480;13.354;2023-03-23T12:28:49;5.30;;;4.10;;
5026;SDS011;2532;52.480;13.354;2023-03-23T12:31:27;5.70;;;3.30;;
5026;SDS011;2532;52.480;13.354;2023-03-23T12:34:05;8.93;;;4.00;;
5026;SDS011;2532;52.480;13.354;2023-03-23T12:36:44;3.93;;;3.43;;
5026;SDS011;2532;52.480;13.354;2023-03-23T12:39:33;7.80;;;4.50;;
5026;SDS011;2532;52.480;13.354;2023-03-23T12:42:16;5.10;;;3.53;;
5026;SDS011;2532;52.480;13.354;2023-03-23T12:45:04;6.03;;;3.77;;
5026;SDS011;2532;52.480;13.354;2023-03-23T12:47:44;4.33;;;3.77;;
5026;SDS011;2532;52.480;13.354;2023-03-23T12:50:14;5.23;;;3.70;;
5026;SDS011;2532;52.480;13.354;2023-03-23T12:52:47;7.37;;;3.97;;
5026;SDS011;2532;52.480;13.354;2023-03-23T12:55:23;5.57;;;3.90;;
5026;SDS011;2532;52.480;13.354;2023-03-23T12:57:54;5.50;;;4.20;;
5026;SDS011;2532;52.480;13.354;2023-03-23T13:00:26;5.47;;;4.00;;
5026;SDS011;2532;52.480;13.354;2023-03-23T13:02:58;5.20;;;4.20;;
5026;SDS011;2532;52.480;13.354;2023-03-23T13:05:32;5.23;;;3.63;;
5026;SDS011;2532;52.480;13.354;2023-03-23T13:08:05;5.00;;;4.27;;
5026;SDS011;2532;52.480;13.354;2023-03-23T13:10:40;6.13;;;3.37;;
5026;SDS011;2532;52.480;13.354;2023-03-23T13:13:13;5.80;;;4.40;;
5026;SDS011;2532;52.480;13.354;2023-03-23T13:15:46;5.97;;;4.00;;
5026;SDS011;2532;52.480;13.354;2023-03-23T13:18:24;3.70;;;2.90;;
5026;SDS011;2532;52.480;13.354;2023-03-23T13:21:04;5.83;;;3.17;;
5026;SDS011;2532;52.480;13.354;2023-03-23T13:23:39;5.87;;;3.50;;
5026;SDS011;2532;52.480;13.354;2023-03-23T13:26:11;6.60;;;3.73;;
5026;SDS011;2532;52.480;13.354;2023-03-23T13:28:48;7.00;;;4.03;;
5026;SDS011;2532;52.480;13.354;2023-03-23T13:31:27;4.10;;;3.37;;
5026;SDS011;2532;52.480;13.354;2023-03-23T13:33:59;4.80;;;3.47;;
5026;SDS011;2532;52.480;13.354;2023-03-23T13:36:31;7.70;;;3.80;;
5026;SDS011;2532;52.480;13.354;2023-03-23T13:39:04;5.33;;;3.73;;
5026;SDS011;2532;52.480;13.354;2023-03-23T13:41:44;6.53;;;3.77;;
5026;SDS011;2532;52.480;13.354;2023-03-23T13:44:17;5.87;;;4.47;;
5026;SDS011;2532;52.480;13.354;2023-03-23T13:46:56;7.00;;;4.33;;
5026;SDS011;2532;52.480;13.354;2023-03-23T13:49:31;7.23;;;3.73;;
5026;SDS011;2532;52.480;13.354;2023-03-23T13:52:13;6.50;;;4.23;;
5026;SDS011;2532;52.480;13.354;2023-03-23T13:54:43;5.80;;;3.70;;
5026;SDS011;2532;52.480;13.354;2023-03-23T13:57:23;8.43;;;4.13;;
5026;SDS011;2532;52.480;13.354;2023-03-23T14:00:11;11.33;;;5.00;;
5026;SDS011;2532;52.480;13.354;2023-03-23T14:02:52;5.93;;;3.90;;
5026;SDS011;2532;52.480;13.354;2023-03-23T14:05:36;6.37;;;3.63;;
5026;SDS011;2532;52.480;13.354;2023-03-23T14:08:13;5.87;;;3.50;;
5026;SDS011;2532;52.480;13.354;2023-03-23T14:10:49;7.67;;;3.53;;
5026;SDS011;2532;52.480;13.354;2023-03-23T14:13:23;6.33;;;3.60;;
5026;SDS011;2532;52.480;13.354;2023-03-23T14:15:55;6.17;;;3.93;;
5026;SDS011;2532;52.480;13.354;2023-03-23T14:18:27;4.67;;;3.73;;
5026;SDS011;2532;52.480;13.354;2023-03-23T14:20:58;7.20;;;3.60;;
5026;SDS011;2532;52.480;13.354;2023-03-23T14:23:25;5.33;;;3.30;;
5026;SDS011;2532;52.480;13.354;2023-03-23T14:25:57;6.33;;;3.60;;
5026;SDS011;2532;52.480;13.354;2023-03-23T14:28:35;5.93;;;3.87;;
5026;SDS011;2532;52.480;13.354;2023-03-23T14:31:05;5.30;;;3.60;;
5026;SDS011;2532;52.480;13.354;2023-03-23T14:33:39;6.80;;;3.00;;
5026;SDS011;2532;52.480;13.354;2023-03-23T14:36:07;5.77;;;3.27;;
5026;SDS011;2532;52.480;13.354;2023-03-23T14:38:35;6.37;;;3.40;;
5026;SDS011;2532;52.480;13.354;2023-03-23T14:41:06;6.30;;;3.07;;
5026;SDS011;2532;52.480;13.354;2023-03-23T14:43:39;8.00;;;3.50;;
5026;SDS011;2532;52.480;13.354;2023-03-23T14:46:07;6.53;;;4.00;;
5026;SDS011;2532;52.480;13.354;2023-03-23T14:48:37;14.33;;;7.80;;
5026;SDS011;2532;52.480;13.354;2023-03-23T14:51:06;4.33;;;3.13;;
5026;SDS011;2532;52.480;13.354;2023-03-23T14:53:41;9.00;;;3.13;;
5026;SDS011;2532;52.480;13.354;2023-03-23T14:56:10;4.93;;;3.17;;
5026;SDS011;2532;52.480;13.354;2023-03-23T14:58:42;4.27;;;2.90;;
5026;SDS011;2532;52.480;13.354;2023-03-23T15:01:10;7.93;;;4.47;;
5026;SDS011;2532;52.480;13.354;2023-03-23T15:03:41;6.40;;;4.00;;
5026;SDS011;2532;52.480;13.354;2023-03-23T15:06:25;9.50;;;4.40;;
5026;SDS011;2532;52.480;13.354;2023-03-23T15:08:56;9.37;;;3.73;;
5026;SDS011;2532;52.480;13.354;2023-03-23T15:11:27;5.70;;;3.57;;
5026;SDS011;2532;52.480;13.354;2023-03-23T15:13:58;8.10;;;3.93;;
5026;SDS011;2532;52.480;13.354;2023-03-23T15:16:30;7.60;;;5.00;;
5026;SDS011;2532;52.480;13.354;2023-03-23T15:18:59;5.63;;;3.33;;
5026;SDS011;2532;52.480;13.354;2023-03-23T15:21:29;5.00;;;3.50;;
5026;SDS011;2532;52.480;13.354;2023-03-23T15:24:01;7.70;;;5.00;;
5026;SDS011;2532;52.480;13.354;2023-03-23T15:26:44;6.10;;;3.30;;
5026;SDS011;2532;52.480;13.354;2023-03-23T15:29:14;9.47;;;6.13;;
5026;SDS011;2532;52.480;13.354;2023-03-23T15:31:44;6.63;;;3.87;;
5026;SDS011;2532;52.480;13.354;2023-03-23T15:34:15;5.90;;;3.20;;
5026;SDS011;2532;52.480;13.354;2023-03-23T15:36:46;6.33;;;4.13;;
5026;SDS011;2532;52.480;13.354;2023-03-23T15:39:18;6.03;;;4.30;;
5026;SDS011;2532;52.480;13.354;2023-03-23T15:41:46;7.80;;;3.63;;
5026;SDS011;2532;52.480;13.354;2023-03-23T15:44:21;7.80;;;3.27;;
5026;SDS011;2532;52.480;13.354;2023-03-23T15:46:52;3.70;;;3.00;;
5026;SDS011;2532;52.480;13.354;2023-03-23T15:49:29;5.13;;;3.60;;
5026;SDS011;2532;52.480;13.354;2023-03-23T15:51:56;7.10;;;3.20;;
5026;SDS011;2532;52.480;13.354;2023-03-23T15:54:23;5.50;;;4.17;;
5026;SDS011;2532;52.480;13.354;2023-03-23T15:56:57;8.20;;;3.60;;
5026;SDS011;2532;52.480;13.354;2023-03-23T15:59:28;5.30;;;3.43;;
5026;SDS011;2532;52.480;13.354;2023-03-23T16:01:56;7.83;;;3.63;;
5026;SDS011;2532;52.480;13.354;2023-03-23T16:04:25;4.60;;;3.17;;
5026;SDS011;2532;52.480;13.354;2023-03-23T16:06:53;4.70;;;3.20;;
5026;SDS011;2532;52.480;13.354;2023-03-23T16:09:23;7.03;;;2.67;;
5026;SDS011;2532;52.480;13.354;2023-03-23T16:11:50;5.30;;;3.50;;
5026;SDS011;2532;52.480;13.354;2023-03-23T16:14:17;6.23;;;3.30;;
5026;SDS011;2532;52.480;13.354;2023-03-23T16:16:46;5.03;;;3.07;;
5026;SDS011;2532;52.480;13.354;2023-03-23T16:19:14;6.00;;;3.27;;
5026;SDS011;2532;52.480;13.354;2023-03-23T16:21:44;6.13;;;3.50;;
5026;SDS011;2532;52.480;13.354;2023-03-23T16:24:11;7.40;;;3.77;;
5026;SDS011;2532;52.480;13.354;2023-03-23T16:26:38;5.37;;;3.17;;
5026;SDS011;2532;52.480;13.354;2023-03-23T16:29:09;5.17;;;2.63;;
5026;SDS011;2532;52.480;13.354;2023-03-23T16:31:38;5.53;;;3.60;;
5026;SDS011;2532;52.480;13.354;2023-03-23T16:34:06;6.20;;;3.10;;
5026;SDS011;2532;52.480;13.354;2023-03-23T16:36:34;6.43;;;3.30;;
5026;SDS011;2532;52.480;13.354;2023-03-23T16:39:01;6.77;;;2.83;;
5026;SDS011;2532;52.480;13.354;2023-03-23T16:41:28;6.57;;;3.30;;
5026;SDS011;2532;52.480;13.354;2023-03-23T16:43:56;4.03;;;3.30;;
5026;SDS011;2532;52.480;13.354;2023-03-23T16:46:23;4.40;;;2.80;;
5026;SDS011;2532;52.480;13.354;2023-03-23T16:48:50;7.73;;;4.20;;
5026;SDS011;2532;52.480;13.354;2023-03-23T16:51:19;8.83;;;4.00;;
5026;SDS011;2532;52.480;13.354;2023-03-23T16:53:46;6.30;;;4.00;;
5026;SDS011;2532;52.480;13.354;2023-03-23T16:56:13;7.37;;;4.10;;
5026;SDS011;2532;52.480;13.354;2023-03-23T16:58:40;6.90;;;3.87;;
5026;SDS011;2532;52.480;13.354;2023-03-23T17:01:07;10.37;;;3.60;;
5026;SDS011;2532;52.480;13.354;2023-03-23T17:03:34;10.23;;;4.90;;
5026;SDS011;2532;52.480;13.354;2023-03-23T17:06:02;8.90;;;5.13;;
5026;SDS011;2532;52.480;13.354;2023-03-23T17:08:31;15.47;;;5.87;;
5026;SDS011;2532;52.480;13.354;2023-03-23T17:10:58;14.80;;;8.97;;
5026;SDS011;2532;52.480;13.354;2023-03-23T17:13:25;18.03;;;11.37;;
5026;SDS011;2532;52.480;13.354;2023-03-23T17:15:53;13.87;;;8.03;;
5026;SDS011;2532;52.480;13.354;2023-03-23T17:18:21;14.07;;;8.30;;
5026;SDS011;2532;52.480;13.354;2023-03-23T17:20:48;16.50;;;9.27;;
5026;SDS011;2532;52.480;13.354;2023-03-23T17:23:18;15.63;;;9.30;;
5026;SDS011;2532;52.480;13.354;2023-03-23T17:25:46;12.47;;;7.00;;
5026;SDS011;2532;52.480;13.354;2023-03-23T17:28:14;14.60;;;9.20;;
5026;SDS011;2532;52.480;13.354;2023-03-23T17:30:41;16.73;;;8.97;;
5026;SDS011;2532;52.480;13.354;2023-03-23T17:33:09;7.63;;;4.77;;
5026;SDS011;2532;52.480;13.354;2023-03-23T17:35:36;11.47;;;5.43;;
5026;SDS011;2532;52.480;13.354;2023-03-23T17:38:03;7.77;;;5.20;;
5026;SDS011;2532;52.480;13.354;2023-03-23T17:40:30;10.97;;;4.00;;
5026;SDS011;2532;52.480;13.354;2023-03-23T17:42:58;5.33;;;3.03;;
5026;SDS011;2532;52.480;13.354;2023-03-23T17:45:25;9.07;;;4.70;;
5026;SDS011;2532;52.480;13.354;2023-03-23T17:47:52;8.03;;;5.03;;
5026;SDS011;2532;52.480;13.354;2023-03-23T17:50:19;10.00;;;5.43;;
5026;SDS011;2532;52.480;13.354;2023-03-23T17:52:46;7.67;;;5.17;;
5026;SDS011;2532;52.480;13.354;2023-03-23T17:55:14;10.60;;;4.80;;
5026;SDS011;2532;52.480;13.354;2023-03-23T17:57:41;14.00;;;8.93;;
5026;SDS011;2532;52.480;13.354;2023-03-23T18:00:10;8.63;;;4.33;;
5026;SDS011;2532;52.480;13.354;2023-03-23T18:02:38;4.90;;;3.57;;
5026;SDS011;2532;52.480;13.354;2023-03-23T18:05:05;7.47;;;3.73;;
5026;SDS011;2532;52.480;13.354;2023-03-23T18:07:34;9.13;;;4.50;;
5026;SDS011;2532;52.480;13.354;2023-03-23T18:10:01;9.00;;;4.30;;
5026;SDS011;2532;52.480;13.354;2023-03-23T18:12:28;5.67;;;4.07;;
5026;SDS011;2532;52.480;13.354;2023-03-23T18:14:55;6.23;;;3.97;;
5026;SDS011;2532;52.480;13.354;2023-03-23T18:17:24;8.80;;;5.13;;
5026;SDS011;2532;52.480;13.354;2023-03-23T18:19:51;5.97;;;3.97;;
5026;SDS011;2532;52.480;13.354;2023-03-23T18:22:18;8.33;;;4.00;;
5026;SDS011;2532;52.480;13.354;2023-03-23T18:24:45;8.27;;;4.57;;
5026;SDS011;2532;52.480;13.354;2023-03-23T18:27:12;6.37;;;4.07;;
5026;SDS011;2532;52.480;13.354;2023-03-23T18:29:39;7.77;;;4.83;;
5026;SDS011;2532;52.480;13.354;2023-03-23T18:32:06;8.30;;;5.70;;
5026;SDS011;2532;52.480;13.354;2023-03-23T18:34:35;11.00;;;6.57;;
5026;SDS011;2532;52.480;13.354;2023-03-23T18:37:02;8.00;;;4.00;;
5026;SDS011;2532;52.480;13.354;2023-03-23T18:39:30;6.70;;;4.00;;
5026;SDS011;2532;52.480;13.354;2023-03-23T18:41:58;8.53;;;3.80;;
5026;SDS011;2532;52.480;13.354;2023-03-23T18:44:25;6.10;;;3.80;;
5026;SDS011;2532;52.480;13.354;2023-03-23T18:46:51;8.30;;;4.67;;
5026;SDS011;2532;52.480;13.354;2023-03-23T18:49:18;10.70;;;5.50;;
5026;SDS011;2532;52.480;13.354;2023-03-23T18:51:47;9.73;;;4.83;;
5026;SDS011;2532;52.480;13.354;2023-03-23T18:54:14;6.93;;;4.70;;
5026;SDS011;2532;52.480;13.354;2023-03-23T18:56:41;7.07;;;4.53;;
5026;SDS011;2532;52.480;13.354;2023-03-23T18:59:08;7.50;;;4.40;;
5026;SDS011;2532;52.480;13.354;2023-03-23T19:01:35;11.40;;;4.50;;
5026;SDS011;2532;52.480;13.354;2023-03-23T19:04:02;8.97;;;3.70;;
5026;SDS011;2532;52.480;13.354;2023-03-23T19:06:29;8.30;;;4.37;;
5026;SDS011;2532;52.480;13.354;2023-03-23T19:08:57;6.63;;;4.30;;
5026;SDS011;2532;52.480;13.354;2023-03-23T19:11:24;6.03;;;4.30;;
5026;SDS011;2532;52.480;13.354;2023-03-23T19:13:52;7.40;;;5.20;;
5026;SDS011;2532;52.480;13.354;2023-03-23T19:16:20;8.53;;;4.37;;
5026;SDS011;2532;52.480;13.354;2023-03-23T19:18:46;6.60;;;4.03;;
5026;SDS011;2532;52.480;13.354;2023-03-23T19:21:13;10.10;;;6.63;;
5026;SDS011;2532;52.480;13.354;2023-03-23T19:23:41;7.70;;;6.40;;
5026;SDS011;2532;52.480;13.354;2023-03-23T19:26:10;9.27;;;4.30;;
5026;SDS011;2532;52.480;13.354;2023-03-23T19:28:46;7.87;;;3.90;;
5026;SDS011;2532;52.480;13.354;2023-03-23T19:31:13;11.00;;;5.00;;
5026;SDS011;2532;52.480;13.354;2023-03-23T19:33:43;7.17;;;4.37;;
5026;SDS011;2532;52.480;13.354;2023-03-23T19:36:10;10.50;;;4.87;;
5026;SDS011;2532;52.480;13.354;2023-03-23T19:38:37;7.53;;;4.43;;
5026;SDS011;2532;52.480;13.354;2023-03-23T19:41:04;7.30;;;5.30;;
5026;SDS011;2532;52.480;13.354;2023-03-23T19:43:32;6.27;;;4.57;;
5026;SDS011;2532;52.480;13.354;2023-03-23T19:46:00;7.17;;;5.03;;
5026;SDS011;2532;52.480;13.354;2023-03-23T19:48:27;9.73;;;5.07;;
5026;SDS011;2532;52.480;13.354;2023-03-23T19:50:55;11.83;;;6.07;;
5026;SDS011;2532;52.480;13.354;2023-03-23T19:53:22;12.80;;;5.13;;
5026;SDS011;2532;52.480;13.354;2023-03-23T19:55:51;9.53;;;5.57;;
5026;SDS011;2532;52.480;13.354;2023-03-23T19:58:18;11.00;;;7.13;;
5026;SDS011;2532;52.480;13.354;2023-03-23T20:00:46;11.37;;;5.97;;
5026;SDS011;2532;52.480;13.354;2023-03-23T20:03:13;11.93;;;5.00;;
5026;SDS011;2532;52.480;13.354;2023-03-23T20:05:40;10.23;;;5.30;;
5026;SDS011;2532;52.480;13.354;2023-03-23T20:08:07;11.83;;;5.07;;
5026;SDS011;2532;52.480;13.354;2023-03-23T20:10:35;10.17;;;5.93;;
5026;SDS011;2532;52.480;13.354;2023-03-23T20:13:03;10.93;;;5.70;;
5026;SDS011;2532;52.480;13.354;2023-03-23T20:15:30;9.50;;;6.00;;
5026;SDS011;2532;52.480;13.354;2023-03-23T20:17:59;9.53;;;4.87;;
5026;SDS011;2532;52.480;13.354;2023-03-23T20:20:26;8.80;;;5.10;;
5026;SDS011;2532;52.480;13.354;2023-03-23T20:22:54;7.60;;;4.80;;
5026;SDS011;2532;52.480;13.354;2023-03-23T20:25:21;8.40;;;5.70;;
5026;SDS011;2532;52.480;13.354;2023-03-23T20:27:48;12.03;;;7.50;;
5026;SDS011;2532;52.480;13.354;2023-03-23T20:30:15;10.73;;;6.57;;
5026;SDS011;2532;52.480;13.354;2023-03-23T20:32:42;7.40;;;4.73;;